Portada
METAR-TAF:

METAR-TAF

Aeroports :

Porter County Municipal Airport

Valparaiso, Indiana, Estats Units d'Amèrica

latitud: 41-27-11N, longitud: 086-59-53W, altitud: 234 m

Observació

L'informe es va fer fa 13 minuts, a les 16:56 UTC
Vent 6 kt del Est amb ràfegues de 17 kt
Temperatura 17°C
Humitat 48%
Pressió 1026 hPa
Visibilitat: 16.1 km
Cel clar

METAR: KVPZ 221656Z AUTO 10006G17KT 10SM CLR 17/06 A3031 RMK AO2 SLP263 T01670061

Hora: 12:09 (17:09 UTC)


TAF: manca

Observacions i pronòstics meteorològics de més de 4000 aeroports (METAR i TAF).

Les estacions disponibles són els punts grocs i vermells al mapa.

Posi el ratolí al punt desitjat per veure el nom de l'estació.

Feu clic per veure les observacions i els pronòstics meteorològics.

Per canviar el mapa: feu clic els botons verds amb una creu de color negre per apropar; al botó verd amb un guió per allunyar la imatge; o en les fletxes verdes per a mapes adjacents.


METAR-TAF: